sensor_id;sensor_type;location;lat;lon;timestamp;temperature;humidity
71082;SHT31;58740;50.672;18.690;2022-07-19T00:00:17;18.61;59.94
71082;SHT31;58740;50.672;18.690;2022-07-19T00:03:02;18.59;59.99
71082;SHT31;58740;50.672;18.690;2022-07-19T00:05:30;18.58;59.91
71082;SHT31;58740;50.672;18.690;2022-07-19T00:07:58;18.55;59.80
71082;SHT31;58740;50.672;18.690;2022-07-19T00:10:26;18.54;59.93
71082;SHT31;58740;50.672;18.690;2022-07-19T00:12:53;18.52;59.76
71082;SHT31;58740;50.672;18.690;2022-07-19T00:15:21;18.51;59.61
71082;SHT31;58740;50.672;18.690;2022-07-19T00:17:50;18.51;59.37
71082;SHT31;58740;50.672;18.690;2022-07-19T00:20:19;18.51;60.01
71082;SHT31;58740;50.672;18.690;2022-07-19T00:22:49;18.50;60.01
71082;SHT31;58740;50.672;18.690;2022-07-19T00:25:19;18.50;60.03
71082;SHT31;58740;50.672;18.690;2022-07-19T00:27:47;18.49;59.86
71082;SHT31;58740;50.672;18.690;2022-07-19T00:30:14;18.48;60.16
71082;SHT31;58740;50.672;18.690;2022-07-19T00:32:42;18.47;60.33
71082;SHT31;58740;50.672;18.690;2022-07-19T00:35:10;18.44;60.20
71082;SHT31;58740;50.672;18.690;2022-07-19T00:37:38;18.43;60.31
71082;SHT31;58740;50.672;18.690;2022-07-19T00:40:14;18.43;60.48
71082;SHT31;58740;50.672;18.690;2022-07-19T00:42:50;18.43;60.74
71082;SHT31;58740;50.672;18.690;2022-07-19T00:45:19;18.44;60.81
71082;SHT31;58740;50.672;18.690;2022-07-19T00:47:47;18.46;60.82
71082;SHT31;58740;50.672;18.690;2022-07-19T00:50:15;18.47;60.34
71082;SHT31;58740;50.672;18.690;2022-07-19T00:52:55;18.48;60.53
71082;SHT31;58740;50.672;18.690;2022-07-19T00:55:33;18.48;60.79
71082;SHT31;58740;50.672;18.690;2022-07-19T00:58:07;18.44;60.65
71082;SHT31;58740;50.672;18.690;2022-07-19T01:00:36;18.42;60.84
71082;SHT31;58740;50.672;18.690;2022-07-19T01:03:06;18.41;61.01
71082;SHT31;58740;50.672;18.690;2022-07-19T01:05:37;18.40;60.67
71082;SHT31;58740;50.672;18.690;2022-07-19T01:08:05;18.40;60.61
71082;SHT31;58740;50.672;18.690;2022-07-19T01:10:33;18.40;59.80
71082;SHT31;58740;50.672;18.690;2022-07-19T01:13:01;18.42;59.34
71082;SHT31;58740;50.672;18.690;2022-07-19T01:15:29;18.44;59.09
71082;SHT31;58740;50.672;18.690;2022-07-19T01:17:57;18.44;59.19
71082;SHT31;58740;50.672;18.690;2022-07-19T01:20:24;18.44;59.08
71082;SHT31;58740;50.672;18.690;2022-07-19T01:22:58;18.42;59.02
71082;SHT31;58740;50.672;18.690;2022-07-19T01:25:27;18.43;59.26
71082;SHT31;58740;50.672;18.690;2022-07-19T01:27:58;18.43;59.04
71082;SHT31;58740;50.672;18.690;2022-07-19T01:30:27;18.40;59.34
71082;SHT31;58740;50.672;18.690;2022-07-19T01:32:55;18.37;59.51
71082;SHT31;58740;50.672;18.690;2022-07-19T01:35:24;18.32;59.93
71082;SHT31;58740;50.672;18.690;2022-07-19T01:37:53;18.28;59.98
71082;SHT31;58740;50.672;18.690;2022-07-19T01:40:21;18.24;59.93
71082;SHT31;58740;50.672;18.690;2022-07-19T01:42:50;18.18;60.23
71082;SHT31;58740;50.672;18.690;2022-07-19T01:45:18;18.16;60.08
71082;SHT31;58740;50.672;18.690;2022-07-19T01:47:48;18.13;60.32
71082;SHT31;58740;50.672;18.690;2022-07-19T01:50:16;18.10;60.41
71082;SHT31;58740;50.672;18.690;2022-07-19T01:52:45;18.06;60.55
71082;SHT31;58740;50.672;18.690;2022-07-19T01:55:17;18.01;60.76
71082;SHT31;58740;50.672;18.690;2022-07-19T01:57:47;17.98;60.99
71082;SHT31;58740;50.672;18.690;2022-07-19T02:00:16;17.95;60.66
71082;SHT31;58740;50.672;18.690;2022-07-19T02:02:45;17.91;60.79
71082;SHT31;58740;50.672;18.690;2022-07-19T02:05:13;17.89;60.91
71082;SHT31;58740;50.672;18.690;2022-07-19T02:07:45;17.87;61.08
71082;SHT31;58740;50.672;18.690;2022-07-19T02:10:13;17.87;61.16
71082;SHT31;58740;50.672;18.690;2022-07-19T02:12:42;17.85;61.02
71082;SHT31;58740;50.672;18.690;2022-07-19T02:15:10;17.82;61.01
71082;SHT31;58740;50.672;18.690;2022-07-19T02:17:38;17.77;61.06
71082;SHT31;58740;50.672;18.690;2022-07-19T02:20:06;17.75;61.23
71082;SHT31;58740;50.672;18.690;2022-07-19T02:22:34;17.73;61.32
71082;SHT31;58740;50.672;18.690;2022-07-19T02:25:02;17.73;61.33
71082;SHT31;58740;50.672;18.690;2022-07-19T02:27:31;17.71;61.36
71082;SHT31;58740;50.672;18.690;2022-07-19T02:29:58;17.68;61.37
71082;SHT31;58740;50.672;18.690;2022-07-19T02:32:26;17.66;61.70
71082;SHT31;58740;50.672;18.690;2022-07-19T02:34:54;17.68;61.70
71082;SHT31;58740;50.672;18.690;2022-07-19T02:37:22;17.69;61.56
71082;SHT31;58740;50.672;18.690;2022-07-19T02:39:49;17.67;61.28
71082;SHT31;58740;50.672;18.690;2022-07-19T02:42:17;17.69;61.43
71082;SHT31;58740;50.672;18.690;2022-07-19T02:44:45;17.69;61.23
71082;SHT31;58740;50.672;18.690;2022-07-19T02:47:12;17.68;61.44
71082;SHT31;58740;50.672;18.690;2022-07-19T02:49:40;17.69;61.17
71082;SHT31;58740;50.672;18.690;2022-07-19T02:52:08;17.66;61.17
71082;SHT31;58740;50.672;18.690;2022-07-19T02:54:35;17.60;61.36
71082;SHT31;58740;50.672;18.690;2022-07-19T02:57:03;17.56;61.33
71082;SHT31;58740;50.672;18.690;2022-07-19T02:59:31;17.52;61.48
71082;SHT31;58740;50.672;18.690;2022-07-19T03:01:58;17.49;61.88
71082;SHT31;58740;50.672;18.690;2022-07-19T03:04:26;17.45;62.00
71082;SHT31;58740;50.672;18.690;2022-07-19T03:06:54;17.43;62.00
71082;SHT31;58740;50.672;18.690;2022-07-19T03:09:22;17.41;62.02
71082;SHT31;58740;50.672;18.690;2022-07-19T03:11:49;17.40;62.13
71082;SHT31;58740;50.672;18.690;2022-07-19T03:14:17;17.39;62.25
71082;SHT31;58740;50.672;18.690;2022-07-19T03:16:44;17.37;62.38
71082;SHT31;58740;50.672;18.690;2022-07-19T03:19:12;17.38;62.48
71082;SHT31;58740;50.672;18.690;2022-07-19T03:21:40;17.35;62.70
71082;SHT31;58740;50.672;18.690;2022-07-19T03:24:07;17.33;62.63
71082;SHT31;58740;50.672;18.690;2022-07-19T03:26:35;17.32;62.65
71082;SHT31;58740;50.672;18.690;2022-07-19T03:29:03;17.30;62.65
71082;SHT31;58740;50.672;18.690;2022-07-19T03:31:31;17.31;62.66
71082;SHT31;58740;50.672;18.690;2022-07-19T03:33:58;17.33;62.49
71082;SHT31;58740;50.672;18.690;2022-07-19T03:36:26;17.35;62.60
71082;SHT31;58740;50.672;18.690;2022-07-19T03:38:54;17.33;62.65
71082;SHT31;58740;50.672;18.690;2022-07-19T03:41:23;17.31;62.80
71082;SHT31;58740;50.672;18.690;2022-07-19T03:43:52;17.30;63.00
71082;SHT31;58740;50.672;18.690;2022-07-19T03:46:20;17.33;63.07
71082;SHT31;58740;50.672;18.690;2022-07-19T03:48:48;17.35;63.23
71082;SHT31;58740;50.672;18.690;2022-07-19T03:51:16;17.39;62.89
71082;SHT31;58740;50.672;18.690;2022-07-19T03:53:44;17.42;62.69
71082;SHT31;58740;50.672;18.690;2022-07-19T03:56:13;17.41;62.61
71082;SHT31;58740;50.672;18.690;2022-07-19T03:58:41;17.38;62.82
71082;SHT31;58740;50.672;18.690;2022-07-19T04:01:09;17.37;62.90
71082;SHT31;58740;50.672;18.690;2022-07-19T04:03:38;17.35;62.91
71082;SHT31;58740;50.672;18.690;2022-07-19T04:06:07;17.35;63.08
71082;SHT31;58740;50.672;18.690;2022-07-19T04:08:37;17.36;63.11
71082;SHT31;58740;50.672;18.690;2022-07-19T04:11:05;17.36;63.10
71082;SHT31;58740;50.672;18.690;2022-07-19T04:13:34;17.37;63.30
71082;SHT31;58740;50.672;18.690;2022-07-19T04:16:03;17.40;63.26
71082;SHT31;58740;50.672;18.690;2022-07-19T04:18:32;17.43;63.41
71082;SHT31;58740;50.672;18.690;2022-07-19T04:20:59;17.48;63.46
71082;SHT31;58740;50.672;18.690;2022-07-19T04:23:28;17.52;63.44
71082;SHT31;58740;50.672;18.690;2022-07-19T04:25:55;17.54;63.44
71082;SHT31;58740;50.672;18.690;2022-07-19T04:28:23;17.56;63.46
71082;SHT31;58740;50.672;18.690;2022-07-19T04:30:51;17.55;63.44
71082;SHT31;58740;50.672;18.690;2022-07-19T04:33:19;17.58;63.52
71082;SHT31;58740;50.672;18.690;2022-07-19T04:35:47;17.58;63.55
71082;SHT31;58740;50.672;18.690;2022-07-19T04:38:15;17.59;63.68
71082;SHT31;58740;50.672;18.690;2022-07-19T04:40:42;17.60;63.90
71082;SHT31;58740;50.672;18.690;2022-07-19T04:43:10;17.59;64.20
71082;SHT31;58740;50.672;18.690;2022-07-19T04:45:38;17.57;63.94
71082;SHT31;58740;50.672;18.690;2022-07-19T04:48:09;17.56;63.42
71082;SHT31;58740;50.672;18.690;2022-07-19T04:50:40;17.57;63.59
71082;SHT31;58740;50.672;18.690;2022-07-19T04:53:08;17.58;63.23
71082;SHT31;58740;50.672;18.690;2022-07-19T04:55:37;17.59;63.23
71082;SHT31;58740;50.672;18.690;2022-07-19T04:58:05;17.62;63.25
71082;SHT31;58740;50.672;18.690;2022-07-19T05:00:33;17.67;63.19
71082;SHT31;58740;50.672;18.690;2022-07-19T05:03:01;17.76;63.24
71082;SHT31;58740;50.672;18.690;2022-07-19T05:05:28;17.87;63.04
71082;SHT31;58740;50.672;18.690;2022-07-19T05:07:56;17.99;63.03
71082;SHT31;58740;50.672;18.690;2022-07-19T05:10:24;18.17;62.92
71082;SHT31;58740;50.672;18.690;2022-07-19T05:12:52;18.32;62.60
71082;SHT31;58740;50.672;18.690;2022-07-19T05:15:19;18.40;62.45
71082;SHT31;58740;50.672;18.690;2022-07-19T05:17:47;18.48;62.45
71082;SHT31;58740;50.672;18.690;2022-07-19T05:20:15;18.57;62.52
71082;SHT31;58740;50.672;18.690;2022-07-19T05:22:44;18.63;62.33
71082;SHT31;58740;50.672;18.690;2022-07-19T05:25:15;18.73;62.05
71082;SHT31;58740;50.672;18.690;2022-07-19T05:27:43;18.82;61.76
71082;SHT31;58740;50.672;18.690;2022-07-19T05:30:11;18.89;61.59
71082;SHT31;58740;50.672;18.690;2022-07-19T05:32:39;18.99;61.57
71082;SHT31;58740;50.672;18.690;2022-07-19T05:35:07;19.09;61.35
71082;SHT31;58740;50.672;18.690;2022-07-19T05:37:36;19.19;61.08
71082;SHT31;58740;50.672;18.690;2022-07-19T05:40:04;19.31;60.81
71082;SHT31;58740;50.672;18.690;2022-07-19T05:42:32;19.43;60.59
71082;SHT31;58740;50.672;18.690;2022-07-19T05:45:00;19.58;60.28
71082;SHT31;58740;50.672;18.690;2022-07-19T05:47:29;19.70;59.29
71082;SHT31;58740;50.672;18.690;2022-07-19T05:49:57;19.79;59.20
71082;SHT31;58740;50.672;18.690;2022-07-19T05:52:26;19.90;59.12
71082;SHT31;58740;50.672;18.690;2022-07-19T05:55:04;19.99;58.48
71082;SHT31;58740;50.672;18.690;2022-07-19T05:57:33;20.07;58.64
71082;SHT31;58740;50.672;18.690;2022-07-19T06:00:01;20.16;58.35
71082;SHT31;58740;50.672;18.690;2022-07-19T06:02:31;20.23;58.09
71082;SHT31;58740;50.672;18.690;2022-07-19T06:04:59;20.35;58.39
71082;SHT31;58740;50.672;18.690;2022-07-19T06:07:27;20.47;58.69
71082;SHT31;58740;50.672;18.690;2022-07-19T06:09:54;20.58;58.25
71082;SHT31;58740;50.672;18.690;2022-07-19T06:12:22;20.66;58.67
71082;SHT31;58740;50.672;18.690;2022-07-19T06:14:50;20.80;57.86
71082;SHT31;58740;50.672;18.690;2022-07-19T06:17:18;20.91;57.24
71082;SHT31;58740;50.672;18.690;2022-07-19T06:19:45;20.96;56.74
71082;SHT31;58740;50.672;18.690;2022-07-19T06:22:13;20.97;56.92
71082;SHT31;58740;50.672;18.690;2022-07-19T06:24:41;21.02;57.43
71082;SHT31;58740;50.672;18.690;2022-07-19T06:27:09;21.04;56.62
71082;SHT31;58740;50.672;18.690;2022-07-19T06:29:37;21.15;57.70
71082;SHT31;58740;50.672;18.690;2022-07-19T06:32:04;21.27;56.89
71082;SHT31;58740;50.672;18.690;2022-07-19T06:34:32;21.35;56.53
71082;SHT31;58740;50.672;18.690;2022-07-19T06:37:00;21.39;56.32
71082;SHT31;58740;50.672;18.690;2022-07-19T06:39:28;21.41;56.48
71082;SHT31;58740;50.672;18.690;2022-07-19T06:41:55;21.46;56.06
71082;SHT31;58740;50.672;18.690;2022-07-19T06:44:23;21.50;56.05
71082;SHT31;58740;50.672;18.690;2022-07-19T06:46:51;21.61;56.53
71082;SHT31;58740;50.672;18.690;2022-07-19T06:49:21;21.77;56.98
71082;SHT31;58740;50.672;18.690;2022-07-19T06:51:49;21.94;55.70
71082;SHT31;58740;50.672;18.690;2022-07-19T06:54:17;22.06;55.30
71082;SHT31;58740;50.672;18.690;2022-07-19T06:56:45;22.23;55.27
71082;SHT31;58740;50.672;18.690;2022-07-19T06:59:12;22.43;55.40
71082;SHT31;58740;50.672;18.690;2022-07-19T07:01:40;22.63;54.69
71082;SHT31;58740;50.672;18.690;2022-07-19T07:04:08;22.83;53.55
71082;SHT31;58740;50.672;18.690;2022-07-19T07:06:35;22.97;53.01
71082;SHT31;58740;50.672;18.690;2022-07-19T07:09:04;23.09;52.60
71082;SHT31;58740;50.672;18.690;2022-07-19T07:11:31;23.15;52.04
71082;SHT31;58740;50.672;18.690;2022-07-19T07:14:00;23.20;51.14
71082;SHT31;58740;50.672;18.690;2022-07-19T07:16:27;23.22;51.14
71082;SHT31;58740;50.672;18.690;2022-07-19T07:18:55;23.24;51.41
71082;SHT31;58740;50.672;18.690;2022-07-19T07:21:23;23.27;51.56
71082;SHT31;58740;50.672;18.690;2022-07-19T07:23:51;23.30;51.69
71082;SHT31;58740;50.672;18.690;2022-07-19T07:26:19;23.31;51.52
71082;SHT31;58740;50.672;18.690;2022-07-19T07:28:47;23.34;51.03
71082;SHT31;58740;50.672;18.690;2022-07-19T07:31:15;23.37;51.98
71082;SHT31;58740;50.672;18.690;2022-07-19T07:33:42;23.46;51.24
71082;SHT31;58740;50.672;18.690;2022-07-19T07:36:10;23.58;50.90
71082;SHT31;58740;50.672;18.690;2022-07-19T07:38:38;23.73;51.36
71082;SHT31;58740;50.672;18.690;2022-07-19T07:41:06;23.88;50.10
71082;SHT31;58740;50.672;18.690;2022-07-19T07:43:54;24.02;50.90
71082;SHT31;58740;50.672;18.690;2022-07-19T07:46:22;24.17;50.43
71082;SHT31;58740;50.672;18.690;2022-07-19T07:48:50;24.31;50.15
71082;SHT31;58740;50.672;18.690;2022-07-19T07:51:23;24.43;48.74
71082;SHT31;58740;50.672;18.690;2022-07-19T07:54:10;24.56;47.86
71082;SHT31;58740;50.672;18.690;2022-07-19T07:56:38;24.65;47.68
71082;SHT31;58740;50.672;18.690;2022-07-19T07:59:07;24.74;47.29
71082;SHT31;58740;50.672;18.690;2022-07-19T08:01:35;24.84;46.96
71082;SHT31;58740;50.672;18.690;2022-07-19T08:04:06;24.94;47.59
71082;SHT31;58740;50.672;18.690;2022-07-19T08:06:33;25.05;46.86
71082;SHT31;58740;50.672;18.690;2022-07-19T08:09:01;25.13;46.39
71082;SHT31;58740;50.672;18.690;2022-07-19T08:11:29;25.20;46.04
71082;SHT31;58740;50.672;18.690;2022-07-19T08:13:57;25.30;45.78
71082;SHT31;58740;50.672;18.690;2022-07-19T08:16:25;25.37;45.19
71082;SHT31;58740;50.672;18.690;2022-07-19T08:18:53;25.45;45.26
71082;SHT31;58740;50.672;18.690;2022-07-19T08:21:21;25.52;44.05
71082;SHT31;58740;50.672;18.690;2022-07-19T08:23:49;25.60;44.28
71082;SHT31;58740;50.672;18.690;2022-07-19T08:26:16;25.69;44.29
71082;SHT31;58740;50.672;18.690;2022-07-19T08:28:44;25.72;43.21
71082;SHT31;58740;50.672;18.690;2022-07-19T08:31:16;25.78;43.44
71082;SHT31;58740;50.672;18.690;2022-07-19T08:33:44;25.83;42.12
71082;SHT31;58740;50.672;18.690;2022-07-19T08:36:12;25.87;42.70
71082;SHT31;58740;50.672;18.690;2022-07-19T08:38:40;25.95;42.67
71082;SHT31;58740;50.672;18.690;2022-07-19T08:41:08;26.02;43.08
71082;SHT31;58740;50.672;18.690;2022-07-19T08:43:36;26.10;41.90
71082;SHT31;58740;50.672;18.690;2022-07-19T08:46:04;26.14;41.98
71082;SHT31;58740;50.672;18.690;2022-07-19T08:48:33;26.21;41.17
71082;SHT31;58740;50.672;18.690;2022-07-19T08:51:13;26.26;41.63
71082;SHT31;58740;50.672;18.690;2022-07-19T08:53:44;26.29;40.32
71082;SHT31;58740;50.672;18.690;2022-07-19T08:56:13;26.33;40.89
71082;SHT31;58740;50.672;18.690;2022-07-19T08:58:59;26.38;40.24
71082;SHT31;58740;50.672;18.690;2022-07-19T09:01:27;26.44;39.74
71082;SHT31;58740;50.672;18.690;2022-07-19T09:04:05;26.50;40.01
71082;SHT31;58740;50.672;18.690;2022-07-19T09:06:49;26.57;40.59
71082;SHT31;58740;50.672;18.690;2022-07-19T09:09:28;26.61;39.34
71082;SHT31;58740;50.672;18.690;2022-07-19T09:11:59;26.64;39.67
71082;SHT31;58740;50.672;18.690;2022-07-19T09:14:29;26.70;38.97
71082;SHT31;58740;50.672;18.690;2022-07-19T09:19:38;26.78;39.58
71082;SHT31;58740;50.672;18.690;2022-07-19T09:22:10;26.79;38.65
71082;SHT31;58740;50.672;18.690;2022-07-19T09:24:43;26.83;39.16
71082;SHT31;58740;50.672;18.690;2022-07-19T09:27:16;26.88;39.25
71082;SHT31;58740;50.672;18.690;2022-07-19T09:29:56;26.92;38.25
71082;SHT31;58740;50.672;18.690;2022-07-19T09:32:26;26.93;37.70
71082;SHT31;58740;50.672;18.690;2022-07-19T09:34:58;26.96;37.87
71082;SHT31;58740;50.672;18.690;2022-07-19T09:37:31;27.00;38.19
71082;SHT31;58740;50.672;18.690;2022-07-19T09:40:02;27.03;38.28
71082;SHT31;58740;50.672;18.690;2022-07-19T09:42:33;27.07;38.30
71082;SHT31;58740;50.672;18.690;2022-07-19T09:45:07;27.08;37.68
71082;SHT31;58740;50.672;18.690;2022-07-19T09:47:41;27.08;37.83
71082;SHT31;58740;50.672;18.690;2022-07-19T09:50:15;27.10;37.63
71082;SHT31;58740;50.672;18.690;2022-07-19T09:52:47;27.14;37.93
71082;SHT31;58740;50.672;18.690;2022-07-19T09:55:18;27.19;37.92
71082;SHT31;58740;50.672;18.690;2022-07-19T09:57:48;27.22;38.22
71082;SHT31;58740;50.672;18.690;2022-07-19T10:00:19;27.25;39.30
71082;SHT31;58740;50.672;18.690;2022-07-19T10:02:56;27.27;37.88
71082;SHT31;58740;50.672;18.690;2022-07-19T10:05:27;27.26;37.39
71082;SHT31;58740;50.672;18.690;2022-07-19T10:07:58;27.26;37.22
71082;SHT31;58740;50.672;18.690;2022-07-19T10:10:26;27.23;36.94
71082;SHT31;58740;50.672;18.690;2022-07-19T10:12:58;27.20;36.74
71082;SHT31;58740;50.672;18.690;2022-07-19T10:15:26;27.18;37.08
71082;SHT31;58740;50.672;18.690;2022-07-19T10:18:02;27.20;37.39
71082;SHT31;58740;50.672;18.690;2022-07-19T10:20:38;27.23;36.99
71082;SHT31;58740;50.672;18.690;2022-07-19T10:23:11;27.27;37.41
71082;SHT31;58740;50.672;18.690;2022-07-19T10:25:45;27.28;37.51
71082;SHT31;58740;50.672;18.690;2022-07-19T10:28:30;27.33;37.58
71082;SHT31;58740;50.672;18.690;2022-07-19T10:31:25;27.37;37.20
71082;SHT31;58740;50.672;18.690;2022-07-19T10:34:10;27.40;36.93
71082;SHT31;58740;50.672;18.690;2022-07-19T10:36:48;27.40;37.97
71082;SHT31;58740;50.672;18.690;2022-07-19T10:50:10;27.52;36.97
71082;SHT31;58740;50.672;18.690;2022-07-19T10:52:42;27.56;36.75
71082;SHT31;58740;50.672;18.690;2022-07-19T10:57:50;27.61;36.42
71082;SHT31;58740;50.672;18.690;2022-07-19T11:00:43;27.65;37.03
71082;SHT31;58740;50.672;18.690;2022-07-19T11:05:53;27.72;36.22
71082;SHT31;58740;50.672;18.690;2022-07-19T11:08:34;27.74;36.09
71082;SHT31;58740;50.672;18.690;2022-07-19T11:11:09;27.78;36.90
71082;SHT31;58740;50.672;18.690;2022-07-19T11:13:42;27.83;35.79
71082;SHT31;58740;50.672;18.690;2022-07-19T11:16:13;27.84;35.56
71082;SHT31;58740;50.672;18.690;2022-07-19T11:18:42;27.84;36.28
71082;SHT31;58740;50.672;18.690;2022-07-19T11:21:12;27.90;36.35
71082;SHT31;58740;50.672;18.690;2022-07-19T11:23:42;27.95;36.76
71082;SHT31;58740;50.672;18.690;2022-07-19T11:26:13;27.99;36.11
71082;SHT31;58740;50.672;18.690;2022-07-19T11:28:50;28.02;36.43
71082;SHT31;58740;50.672;18.690;2022-07-19T11:31:19;28.07;35.87
71082;SHT31;58740;50.672;18.690;2022-07-19T11:33:53;28.13;35.69
71082;SHT31;58740;50.672;18.690;2022-07-19T11:36:26;28.16;34.89
71082;SHT31;58740;50.672;18.690;2022-07-19T11:38:56;28.18;35.29
71082;SHT31;58740;50.672;18.690;2022-07-19T11:41:30;28.22;35.29
71082;SHT31;58740;50.672;18.690;2022-07-19T11:44:00;28.25;35.00
71082;SHT31;58740;50.672;18.690;2022-07-19T11:46:32;28.25;35.09
71082;SHT31;58740;50.672;18.690;2022-07-19T11:49:09;28.26;35.14
71082;SHT31;58740;50.672;18.690;2022-07-19T11:51:39;28.31;35.08
71082;SHT31;58740;50.672;18.690;2022-07-19T11:54:07;28.36;34.87
71082;SHT31;58740;50.672;18.690;2022-07-19T11:56:36;28.40;34.73
71082;SHT31;58740;50.672;18.690;2022-07-19T11:59:05;28.40;34.52
71082;SHT31;58740;50.672;18.690;2022-07-19T12:01:38;28.42;34.26
71082;SHT31;58740;50.672;18.690;2022-07-19T12:04:08;28.42;33.63
71082;SHT31;58740;50.672;18.690;2022-07-19T12:06:44;28.38;34.43
71082;SHT31;58740;50.672;18.690;2022-07-19T12:11:50;28.43;34.19
71082;SHT31;58740;50.672;18.690;2022-07-19T12:14:21;28.48;34.46
71082;SHT31;58740;50.672;18.690;2022-07-19T12:17:12;28.51;34.39
71082;SHT31;58740;50.672;18.690;2022-07-19T12:19:50;28.55;34.68
71082;SHT31;58740;50.672;18.690;2022-07-19T12:22:53;28.50;34.36
71082;SHT31;58740;50.672;18.690;2022-07-19T12:25:42;28.41;33.97
71082;SHT31;58740;50.672;18.690;2022-07-19T12:28:09;28.37;34.50
71082;SHT31;58740;50.672;18.690;2022-07-19T12:30:38;28.37;34.62
71082;SHT31;58740;50.672;18.690;2022-07-19T12:38:15;28.50;34.73
71082;SHT31;58740;50.672;18.690;2022-07-19T12:40:43;28.55;33.90
71082;SHT31;58740;50.672;18.690;2022-07-19T12:43:11;28.59;34.21
71082;SHT31;58740;50.672;18.690;2022-07-19T12:45:43;28.64;33.79
71082;SHT31;58740;50.672;18.690;2022-07-19T12:48:15;28.66;34.12
71082;SHT31;58740;50.672;18.690;2022-07-19T12:50:45;28.66;34.03
71082;SHT31;58740;50.672;18.690;2022-07-19T12:53:19;28.67;33.48
71082;SHT31;58740;50.672;18.690;2022-07-19T12:55:48;28.70;33.34
71082;SHT31;58740;50.672;18.690;2022-07-19T12:58:17;28.70;33.87
71082;SHT31;58740;50.672;18.690;2022-07-19T13:01:05;28.74;34.46
71082;SHT31;58740;50.672;18.690;2022-07-19T13:03:35;28.80;34.73
71082;SHT31;58740;50.672;18.690;2022-07-19T13:06:03;28.83;34.30
71082;SHT31;58740;50.672;18.690;2022-07-19T13:08:33;28.84;33.94
71082;SHT31;58740;50.672;18.690;2022-07-19T13:11:01;28.80;33.81
71082;SHT31;58740;50.672;18.690;2022-07-19T13:13:29;28.77;33.76
71082;SHT31;58740;50.672;18.690;2022-07-19T13:15:57;28.75;34.49
71082;SHT31;58740;50.672;18.690;2022-07-19T13:18:24;28.75;34.93
71082;SHT31;58740;50.672;18.690;2022-07-19T13:20:52;28.77;35.36
71082;SHT31;58740;50.672;18.690;2022-07-19T13:23:20;28.75;33.83
71082;SHT31;58740;50.672;18.690;2022-07-19T13:25:47;28.71;34.03
71082;SHT31;58740;50.672;18.690;2022-07-19T13:28:15;28.67;33.68
71082;SHT31;58740;50.672;18.690;2022-07-19T13:30:43;28.65;33.49
71082;SHT31;58740;50.672;18.690;2022-07-19T13:33:11;28.67;33.37
71082;SHT31;58740;50.672;18.690;2022-07-19T13:35:38;28.67;32.72
71082;SHT31;58740;50.672;18.690;2022-07-19T13:38:07;28.64;32.36
71082;SHT31;58740;50.672;18.690;2022-07-19T13:40:35;28.61;32.55
71082;SHT31;58740;50.672;18.690;2022-07-19T13:43:03;28.58;32.08
71082;SHT31;58740;50.672;18.690;2022-07-19T13:45:30;28.57;31.99
71082;SHT31;58740;50.672;18.690;2022-07-19T13:47:58;28.58;32.11
71082;SHT31;58740;50.672;18.690;2022-07-19T13:50:28;28.60;32.46
71082;SHT31;58740;50.672;18.690;2022-07-19T13:52:57;28.60;32.53
71082;SHT31;58740;50.672;18.690;2022-07-19T13:55:26;28.62;32.52
71082;SHT31;58740;50.672;18.690;2022-07-19T13:57:55;28.64;32.20
71082;SHT31;58740;50.672;18.690;2022-07-19T14:00:23;28.67;32.30
71082;SHT31;58740;50.672;18.690;2022-07-19T14:02:51;28.68;31.93
71082;SHT31;58740;50.672;18.690;2022-07-19T14:05:20;28.69;32.64
71082;SHT31;58740;50.672;18.690;2022-07-19T14:07:48;28.71;32.50
71082;SHT31;58740;50.672;18.690;2022-07-19T14:10:16;28.74;32.52
71082;SHT31;58740;50.672;18.690;2022-07-19T14:12:43;28.75;32.12
71082;SHT31;58740;50.672;18.690;2022-07-19T14:15:11;28.76;32.16
71082;SHT31;58740;50.672;18.690;2022-07-19T14:17:39;28.78;32.33
71082;SHT31;58740;50.672;18.690;2022-07-19T14:20:06;28.80;32.30
71082;SHT31;58740;50.672;18.690;2022-07-19T14:22:35;28.81;32.17
71082;SHT31;58740;50.672;18.690;2022-07-19T14:25:03;28.81;31.53
71082;SHT31;58740;50.672;18.690;2022-07-19T14:27:31;28.81;31.72
71082;SHT31;58740;50.672;18.690;2022-07-19T14:29:59;28.82;31.99
71082;SHT31;58740;50.672;18.690;2022-07-19T14:32:27;28.83;31.64
71082;SHT31;58740;50.672;18.690;2022-07-19T14:34:54;28.84;31.47
71082;SHT31;58740;50.672;18.690;2022-07-19T14:37:22;28.86;31.15
71082;SHT31;58740;50.672;18.690;2022-07-19T14:39:55;28.83;30.90
71082;SHT31;58740;50.672;18.690;2022-07-19T14:42:23;28.83;31.13
71082;SHT31;58740;50.672;18.690;2022-07-19T14:44:51;28.80;31.57
71082;SHT31;58740;50.672;18.690;2022-07-19T14:47:19;28.77;31.72
71082;SHT31;58740;50.672;18.690;2022-07-19T14:49:47;28.75;31.53
71082;SHT31;58740;50.672;18.690;2022-07-19T14:52:15;28.71;31.68
71082;SHT31;58740;50.672;18.690;2022-07-19T14:54:43;28.68;31.96
71082;SHT31;58740;50.672;18.690;2022-07-19T14:57:10;28.68;31.52
71082;SHT31;58740;50.672;18.690;2022-07-19T14:59:38;28.67;31.51
71082;SHT31;58740;50.672;18.690;2022-07-19T15:02:12;28.65;31.87
71082;SHT31;58740;50.672;18.690;2022-07-19T15:04:41;28.65;31.59
71082;SHT31;58740;50.672;18.690;2022-07-19T15:07:09;28.66;31.64
71082;SHT31;58740;50.672;18.690;2022-07-19T15:09:37;28.63;31.30
71082;SHT31;58740;50.672;18.690;2022-07-19T15:12:05;28.62;31.32
71082;SHT31;58740;50.672;18.690;2022-07-19T15:14:36;28.62;31.50
71082;SHT31;58740;50.672;18.690;2022-07-19T15:17:05;28.61;31.53
71082;SHT31;58740;50.672;18.690;2022-07-19T15:19:33;28.59;31.39
71082;SHT31;58740;50.672;18.690;2022-07-19T15:22:01;28.58;31.51
71082;SHT31;58740;50.672;18.690;2022-07-19T15:24:30;28.57;31.59
71082;SHT31;58740;50.672;18.690;2022-07-19T15:26:58;28.57;31.91
71082;SHT31;58740;50.672;18.690;2022-07-19T15:29:26;28.57;31.46
71082;SHT31;58740;50.672;18.690;2022-07-19T15:31:53;28.56;31.24
71082;SHT31;58740;50.672;18.690;2022-07-19T15:34:21;28.54;31.16
71082;SHT31;58740;50.672;18.690;2022-07-19T15:36:49;28.52;31.35
71082;SHT31;58740;50.672;18.690;2022-07-19T15:39:17;28.51;31.36
71082;SHT31;58740;50.672;18.690;2022-07-19T15:41:44;28.52;31.24
71082;SHT31;58740;50.672;18.690;2022-07-19T15:44:12;28.52;30.90
71082;SHT31;58740;50.672;18.690;2022-07-19T15:46:40;28.53;30.97
71082;SHT31;58740;50.672;18.690;2022-07-19T15:49:14;28.53;30.96
71082;SHT31;58740;50.672;18.690;2022-07-19T15:51:42;28.51;30.94
71082;SHT31;58740;50.672;18.690;2022-07-19T15:54:09;28.50;31.18
71082;SHT31;58740;50.672;18.690;2022-07-19T15:56:37;28.47;31.30